| Record Date MM/DD/YYYY | Record Time HH:MM:SS | Record Julian Date NNN day of the year | Air Temperature Max (Degrees Fahrenheit F) | Time Max Air Temperature HH:MM:SS This is the time of max air temp for the prior hour interval listed for record [Time]. | Air Temperature Min (Degrees Fahrenheit F) | Time Min Air Temperature HH:MM:SS This is the time of min air temp for the prior hour interval listed for record [Time]. | Air Temperature Observed (Degrees Fahrenheit F) This is an instantaneous reading at the record [Time]. | Relative Humidity Max (Percent) | Time Max Relative Humidity HH:MM:SS This is the time of max relative humidity for the prior hour interval listed for record [Time]. | Relative Humidity Min (Percent) | Time Min Relative Humidity HH:MM:SS This is the time of min relative humidity for the prior hour interval listed for record [Time]. | Relative Humidity Observed (Percent) This is an instantaneous reading at the record [Time]. | Precipitation (Inches n.nn) rain fall that occurred during the prior hour interval listed for record [Time]. | Wind Speed (Miles Per Hour) Resultant Speed that occurred during the prior hour interval listed for record [Time]. | Wind Direction (Degrees) Resultant Direction that occurred during the prior hour interval listed for record [Time]. | Solar Radiation (Langley's) that occurred during the prior hour interval listed for record [Time]. | Soil Temperature Average at 2 inch depth (Degrees Fahrenheit F) that occurred during the prior hour interval listed for record [Time]. | Soil Temperature Observed at 2 inch depth (Degrees Fahrenheit F) This is an instantaneous reading at the record [Time]. | Soil Temperature Average at 4 inch depth (Degrees Fahrenheit F) that occurred during the prior hour interval listed for record [Time]. | Soil Temperature Observed at 4 inch depth (Degrees Fahrenheit F) This is an instantaneous reading at the record [Time]. |
|---|---|---|---|---|---|---|---|---|---|---|---|---|---|---|---|---|---|---|---|---|
| 04/29/2026 | 0:00:00 | 119 | 69 | 23:46:00 | 68 | 23:01:03 | 69 | 100 | 23:31:02 | 100 | 23:00:01 | 99.7 | 0 | 1.1 | 167 | |||||
| 04/29/2026 | 1:00:00 | 119 | 69 | 0:03:01 | 68 | 0:43:02 | 68 | 100 | 0:00:05 | 96 | 0:59:04 | 96.3 | 0.01 | 0.0 | 177 | |||||
| 04/29/2026 | 2:00:00 | 119 | 68 | 1:51:05 | 68 | 1:32:03 | 68 | 98 | 1:59:04 | 96 | 1:00:05 | 98 | 0.02 | 0.0 | 0 | |||||
| 04/29/2026 | 3:00:00 | 119 | 68 | 2:11:05 | 68 | 2:30:02 | 68 | 99 | 2:44:02 | 98 | 2:00:01 | 99 | 0.18 | 0.1 | 147 | |||||
| 04/29/2026 | 4:00:00 | 119 | 69 | 3:59:04 | 68 | 3:00:01 | 69 | 99 | 3:51:02 | 99 | 3:00:04 | 99.2 | 0.03 | 0.0 | 166 | |||||
| 04/29/2026 | 5:00:00 | 119 | 69 | 4:28:02 | 69 | 4:00:01 | 69 | 99 | 4:00:01 | 99 | 4:24:03 | 99.1 | 0.01 | 0.1 | 144 | |||||
| 04/29/2026 | 6:00:00 | 119 | 69 | 5:47:01 | 69 | 5:39:04 | 69 | 100 | 5:58:04 | 99 | 5:00:03 | 100 | 1.2 | 0.5 | 174 | |||||
| 04/29/2026 | 7:00:00 | 119 | 70 | 6:57:02 | 69 | 6:00:02 | 70 | 100 | 6:00:01 | 98 | 6:59:05 | 97.9 | 0.32 | 0.7 | 160 | |||||
| 04/29/2026 | 8:00:00 | 119 | 73 | 7:40:04 | 70 | 7:00:01 | 73 | 98 | 7:00:01 | 94 | 7:47:00 | 94.9 | 0 | 0.2 | 173 | |||||
| 04/29/2026 | 9:00:00 | 119 | 76 | 8:44:00 | 73 | 8:00:01 | 74 | 95 | 8:00:03 | 89 | 8:45:03 | 91.9 | 0 | 0.6 | 184 | |||||
| 04/29/2026 | 10:00:00 | 119 | 77 | 9:58:04 | 74 | 9:00:02 | 77 | 92 | 9:26:01 | 87 | 10:00:00 | 87.2 | 0 | 0.0 | 185 | |||||
| 04/29/2026 | 11:00:00 | 119 | 77 | 10:58:00 | 75 | 10:37:01 | 76 | 91 | 10:41:01 | 87 | 10:00:01 | 88.5 | 0 | 0.0 | 214 | |||||
| 04/29/2026 | 12:00:00 | 119 | 80 | 11:55:05 | 76 | 11:00:01 | 80 | 89 | 11:01:04 | 80 | 11:59:03 | 81.8 | 0 | 0.0 | 239 | |||||
| 04/29/2026 | 13:00:00 | 119 | 82 | 12:39:04 | 79 | 12:09:01 | 81 | 85 | 12:11:00 | 72 | 12:42:02 | 76.75 | 0 | 0.0 | 284 | |||||
| 04/29/2026 | 14:00:00 | 119 | 82 | 13:35:03 | 81 | 13:02:05 | 81 | 79 | 13:00:01 | 71 | 13:55:05 | 73.03 | 0 | 0.0 | 0 | |||||
| 04/29/2026 | 15:00:00 | 119 | 82 | 14:30:03 | 80 | 15:00:00 | 80 | 80 | 14:59:04 | 70 | 14:18:01 | 77.41 | 0 | 0.0 | 343 | |||||
| 04/29/2026 | 16:00:00 | 119 | 80 | 15:45:03 | 80 | 15:30:01 | 80 | 81 | 15:14:02 | 74 | 15:29:05 | 77.66 | 0 | 0.0 | 348 | |||||
| 04/29/2026 | 17:00:00 | 119 | 80 | 16:42:02 | 79 | 16:19:04 | 80 | 80 | 16:04:04 | 75 | 16:37:02 | 79.13 | 0 | 0.0 | 0 | |||||
| 04/29/2026 | 18:00:00 | 119 | 80 | 17:00:01 | 69 | 18:00:00 | 69 | 88 | 18:00:00 | 69 | 17:08:00 | 88 | 0.04 | 3.4 | 167 | |||||
| 04/29/2026 | 19:00:00 | 119 | 69 | 18:00:01 | 66 | 18:56:01 | 67 | 99 | 18:58:03 | 88 | 18:00:01 | 98.5 | 0.63 | 0.0 | 290 | |||||
| 04/29/2026 | 20:00:00 | 119 | 67 | 19:55:00 | 67 | 19:10:02 | 67 | 99 | 19:59:04 | 99 | 19:02:04 | 99.1 | 0.05 | 0.0 | 0 | |||||
| 04/29/2026 | 21:00:00 | 119 | 68 | 20:43:00 | 67 | 20:03:05 | 67 | 99 | 20:09:00 | 99 | 20:14:01 | 99.1 | 0 | 0.0 | 0 | |||||
| 04/29/2026 | 22:00:00 | 119 | 68 | 21:30:02 | 67 | 21:02:03 | 68 | 99 | 21:59:03 | 99 | 21:01:02 | 99.3 | 0.01 | 0.0 | 0 | |||||
| 04/29/2026 | 23:00:00 | 119 | 68 | 22:27:00 | 67 | 22:57:04 | 67 | 100 | 22:27:00 | 99 | 22:57:04 | 99.2 | 0.01 | 0.0 | 0 | |||||
| 04/30/2026 | 0:00:00 | 120 | 67 | 23:48:01 | 66 | 0:00:00 | 66 | 99 | 23:01:00 | 98 | 23:56:02 | 98.3 | 0.01 | 0.0 | 322 | |||||
| 04/30/2026 | 1:00:00 | 120 | 66 | 0:00:01 | 64 | 0:57:03 | 64 | 99 | 0:53:04 | 98 | 0:07:03 | 99 | 0.03 | 0.0 | 327 | |||||
| 04/30/2026 | 2:00:00 | 120 | 64 | 1:03:04 | 62 | 1:56:00 | 62 | 99 | 1:02:00 | 96 | 1:53:04 | 96 | 0 | 0.1 | 352 | |||||
| 04/30/2026 | 3:00:00 | 120 | 62 | 2:00:04 | 61 | 2:35:04 | 61 | 98 | 2:54:00 | 95 | 2:07:04 | 97.9 | 0.02 | 0.0 | 31 | |||||
| 04/30/2026 | 4:00:00 | 120 | 61 | 3:00:01 | 61 | 3:39:02 | 61 | 98 | 3:02:01 | 95 | 3:55:04 | 95.6 | 0 | 0.0 | 0 | |||||
| 04/30/2026 | 5:00:00 | 120 | 61 | 4:08:01 | 60 | 4:54:02 | 60 | 96 | 4:22:01 | 94 | 4:48:03 | 95.9 | 0 | 0.0 | 0 | |||||
| 04/30/2026 | 6:00:00 | 120 | 61 | 5:56:03 | 60 | 5:28:00 | 60 | 98 | 5:40:03 | 96 | 5:59:03 | 95.6 | 0 | 0.0 | 0 | |||||
| 04/30/2026 | 7:00:00 | 120 | 61 | 6:53:01 | 60 | 6:00:01 | 61 | 96 | 6:33:00 | 93 | 6:57:01 | 93.7 | 0 | 0.0 | 359 | |||||
| 04/30/2026 | 8:00:00 | 120 | 61 | 7:20:02 | 60 | 7:45:01 | 61 | 94 | 7:03:01 | 87 | 8:00:00 | 86.5 | 0 | 0.1 | 355 | |||||
| 04/30/2026 | 9:00:00 | 120 | 63 | 8:58:00 | 60 | 8:02:03 | 62 | 90 | 8:01:01 | 77 | 8:55:05 | 78.84 | 0 | 0.2 | 32 | |||||
| 04/30/2026 | 10:00:00 | 120 | 64 | 9:46:04 | 62 | 9:06:05 | 64 | 86 | 9:09:02 | 74 | 9:49:01 | 76.83 | 0 | 0.1 | 35 | |||||
| 04/30/2026 | 11:00:00 | 120 | 66 | 10:41:02 | 64 | 10:00:04 | 66 | 80 | 10:16:05 | 67 | 10:44:02 | 72.97 | 0 | 0.5 | 42 | |||||
| 04/30/2026 | 12:00:00 | 120 | 68 | 11:51:00 | 66 | 11:00:03 | 68 | 79 | 11:33:00 | 64 | 11:54:04 | 66.13 | 0 | 0.4 | 12 | |||||
| 04/30/2026 | 13:00:00 | 120 | 71 | 12:53:04 | 67 | 12:01:04 | 70 | 76 | 12:08:02 | 59 | 12:38:02 | 69.9 | 0 | 0.5 | 355 | |||||
| 04/30/2026 | 14:00:00 | 120 | 71 | 13:53:00 | 69 | 13:02:00 | 70 | 73 | 13:26:00 | 55 | 13:56:04 | 59.78 | 0 | 0.4 | 346 | |||||
| 04/30/2026 | 15:00:00 | 120 | 71 | 14:31:00 | 69 | 14:06:03 | 70 | 68 | 14:33:05 | 53 | 14:38:00 | 58.27 | 0 | 0.3 | 348 | |||||
| 04/30/2026 | 16:00:00 | 120 | 70 | 15:17:01 | 68 | 15:52:01 | 68 | 69 | 15:56:02 | 57 | 15:22:02 | 64.21 | 0 | 0.0 | 350 | |||||
| 04/30/2026 | 17:00:00 | 120 | 68 | 16:00:03 | 66 | 16:55:05 | 66 | 72 | 16:47:03 | 60 | 16:10:03 | 69.1 | 0 | 0.1 | 17 | |||||
| 04/30/2026 | 18:00:00 | 120 | 66 | 17:19:04 | 64 | 17:58:02 | 64 | 75 | 17:55:05 | 65 | 17:08:01 | 73.52 | 0 | 0.0 | 0 | |||||
| 04/30/2026 | 19:00:00 | 120 | 64 | 18:00:02 | 63 | 18:59:01 | 63 | 78 | 18:41:04 | 72 | 18:11:05 | 74.12 | 0 | 0.0 | 0 | |||||
| 04/30/2026 | 20:00:00 | 120 | 63 | 19:00:05 | 62 | 19:55:03 | 62 | 79 | 19:37:00 | 74 | 19:00:02 | 76.72 | 0 | 0.0 | 0 | |||||
| 04/30/2026 | 21:00:00 | 120 | 62 | 20:03:02 | 62 | 20:30:01 | 62 | 81 | 20:28:02 | 75 | 20:02:02 | 77.45 | 0 | 0.0 | 0 | |||||
| 04/30/2026 | 22:00:00 | 120 | 62 | 21:02:00 | 61 | 21:49:03 | 61 | 83 | 21:17:00 | 77 | 21:00:02 | 80.3 | 0 | 0.0 | 0 | |||||
| 04/30/2026 | 23:00:00 | 120 | 61 | 22:00:01 | 61 | 22:56:00 | 61 | 83 | 22:50:04 | 77 | 22:24:01 | 79.72 | 0 | 0.0 | 0 | |||||
| 05/01/2026 | 0:00:00 | 121 | 61 | 23:06:02 | 60 | 23:59:03 | 60 | 85 | 23:59:05 | 77 | 23:02:03 | 85.2 | 0 | 0.0 | 0 | |||||
| 05/01/2026 | 1:00:00 | 121 | 60 | 0:00:01 | 59 | 0:59:04 | 59 | 87 | 0:21:00 | 84 | 0:58:00 | 84.1 | 0 | 0.0 | 0 | |||||
| 05/01/2026 | 2:00:00 | 121 | 59 | 1:01:00 | 57 | 1:58:04 | 57 | 89 | 1:54:05 | 83 | 1:05:03 | 88 | 0 | 0.0 | 0 | |||||
| 05/01/2026 | 3:00:00 | 121 | 58 | 2:25:05 | 57 | 3:00:00 | 57 | 89 | 2:02:05 | 83 | 2:45:03 | 84.3 | 0 | 0.0 | 0 | |||||
| 05/01/2026 | 4:00:00 | 121 | 57 | 3:00:03 | 57 | 3:44:01 | 57 | 89 | 3:34:05 | 84 | 3:02:03 | 86.5 | 0 | 0.0 | 0 | |||||
| 05/01/2026 | 5:00:00 | 121 | 57 | 4:02:01 | 56 | 4:54:05 | 56 | 91 | 5:00:00 | 85 | 4:05:03 | 91 | 0 | 0.0 | 0 | |||||
| 05/01/2026 | 6:00:00 | 121 | 56 | 5:58:01 | 56 | 5:31:05 | 56 | 91 | 5:09:05 | 88 | 5:56:01 | 88.8 | 0 | 0.0 | 0 | |||||
| 05/01/2026 | 7:00:00 | 121 | 57 | 6:16:00 | 56 | 6:00:01 | 56 | 90 | 6:06:03 | 86 | 6:21:05 | 86.7 | 0 | 0.0 | 0 | |||||
| 05/01/2026 | 8:00:00 | 121 | 57 | 7:35:03 | 56 | 7:01:04 | 57 | 88 | 7:15:05 | 83 | 7:48:05 | 84.9 | 0 | 0.0 | 0 | |||||
| 05/01/2026 | 9:00:00 | 121 | 58 | 8:59:01 | 57 | 8:03:01 | 58 | 86 | 8:00:04 | 78 | 9:00:00 | 78.21 | 0 | 0.0 | 0 | |||||
| 05/01/2026 | 10:00:00 | 121 | 60 | 9:56:05 | 58 | 9:05:01 | 59 | 82 | 9:09:03 | 73 | 9:58:03 | 74.75 | 0 | 0.0 | 0 | |||||
| 05/01/2026 | 11:00:00 | 121 | 63 | 11:00:00 | 59 | 10:00:03 | 63 | 78 | 10:03:00 | 68 | 10:51:04 | 71.86 | 0 | 0.0 | 0 | |||||
| 05/01/2026 | 12:00:00 | 121 | 63 | 11:18:00 | 63 | 11:41:00 | 63 | 76 | 11:01:05 | 63 | 11:29:00 | 65.34 | 0 | 0.0 | 0 | |||||
| 05/01/2026 | 13:00:00 | 121 | 64 | 12:59:03 | 63 | 12:00:04 | 64 | 71 | 12:09:05 | 59 | 12:54:02 | 63.52 | 0 | 0.0 | 322 | |||||
| 05/01/2026 | 14:00:00 | 121 | 65 | 13:19:04 | 63 | 13:57:04 | 64 | 70 | 13:19:02 | 57 | 13:20:03 | 64.39 | 0 | 0.3 | 351 | |||||
| 05/01/2026 | 15:00:00 | 121 | 64 | 14:02:02 | 63 | 14:53:04 | 63 | 71 | 14:37:01 | 60 | 14:05:05 | 70.67 | 0 | 0.0 | 351 | |||||
| 05/01/2026 | 16:00:00 | 121 | 63 | 15:00:02 | 62 | 15:54:05 | 62 | 73 | 15:57:00 | 64 | 15:02:04 | 70.18 | 0 | 0.0 | 0 | |||||
| 05/01/2026 | 17:00:00 | 121 | 62 | 16:00:04 | 61 | 17:00:00 | 61 | 80 | 16:50:00 | 68 | 16:03:01 | 76.28 | 0 | 0.0 | 0 | |||||
| 05/01/2026 | 18:00:00 | 121 | 61 | 17:07:00 | 60 | 18:00:00 | 60 | 82 | 17:32:02 | 75 | 17:04:00 | 80.8 | 0 | 0.0 | 0 | |||||
| 05/01/2026 | 19:00:00 | 121 | 60 | 18:04:03 | 59 | 18:57:04 | 59 | 84 | 19:00:00 | 81 | 18:00:04 | 84.3 | 0 | 0.0 | 0 | |||||
| 05/01/2026 | 20:00:00 | 121 | 59 | 19:02:02 | 59 | 19:33:02 | 59 | 87 | 19:28:04 | 84 | 19:00:01 | 86.6 | 0 | 0.0 | 0 | |||||
| 05/01/2026 | 21:00:00 | 121 | 59 | 20:00:01 | 58 | 20:58:05 | 58 | 88 | 20:56:05 | 85 | 20:05:04 | 87.7 | 0 | 0.0 | 0 | |||||
| 05/01/2026 | 22:00:00 | 121 | 58 | 21:07:00 | 58 | 21:29:02 | 58 | 91 | 22:00:00 | 87 | 21:14:03 | 90.5 | 0 | 0.0 | 0 | |||||
| 05/01/2026 | 23:00:00 | 121 | 58 | 22:57:05 | 58 | 22:08:03 | 58 | 91 | 22:01:03 | 89 | 22:56:00 | 89.2 | 0 | 0.0 | 0 | |||||
| 05/02/2026 | 0:00:00 | 122 | 58 | 23:02:02 | 58 | 0:00:00 | 58 | 90 | 23:02:02 | 88 | 23:50:01 | 88.3 | 0 | 0.0 | 347 | |||||
| 05/02/2026 | 1:00:00 | 122 | 58 | 0:00:01 | 57 | 0:26:04 | 58 | 89 | 0:09:03 | 78 | 0:55:05 | 80.7 | 0 | 0.0 | 0 | |||||
| 05/02/2026 | 2:00:00 | 122 | 58 | 1:10:03 | 57 | 1:56:02 | 57 | 82 | 1:03:02 | 70 | 1:59:04 | 70.82 | 0 | 0.0 | 20 | |||||
| 05/02/2026 | 3:00:00 | 122 | 57 | 2:05:00 | 56 | 2:59:00 | 56 | 73 | 2:13:03 | 65 | 2:50:01 | 69.31 | 0 | 0.0 | 354 | |||||
| 05/02/2026 | 4:00:00 | 122 | 56 | 3:00:01 | 56 | 3:59:00 | 56 | 70 | 3:11:04 | 62 | 3:49:04 | 67.15 | 0 | 0.0 | 351 | |||||
| 05/02/2026 | 5:00:00 | 122 | 56 | 4:06:04 | 54 | 4:49:04 | 54 | 72 | 4:59:01 | 64 | 4:05:03 | 70.68 | 0 | 0.0 | 342 | |||||
| 05/02/2026 | 6:00:00 | 122 | 54 | 5:06:05 | 54 | 5:46:04 | 54 | 73 | 6:00:00 | 68 | 5:08:05 | 73.29 | 0 | 0.0 | 0 | |||||
| 05/02/2026 | 7:00:00 | 122 | 57 | 6:59:04 | 54 | 6:00:01 | 57 | 74 | 6:01:01 | 65 | 6:55:00 | 64.92 | 0 | 0.1 | 354 | |||||
| 05/02/2026 | 8:00:00 | 122 | 59 | 7:12:02 | 57 | 7:00:02 | 58 | 68 | 7:44:01 | 57 | 7:56:04 | 61.39 | 0 | 0.0 | 0 | |||||
| 05/02/2026 | 9:00:00 | 122 | 62 | 8:50:01 | 58 | 8:04:05 | 61 | 64 | 8:18:04 | 48 | 8:51:03 | 53.01 | 0 | 0.8 | 357 | |||||
| 05/02/2026 | 10:00:00 | 122 | 66 | 9:54:01 | 61 | 9:00:01 | 65 | 60 | 9:01:01 | 41 | 9:58:02 | 46.87 | 0 | 0.4 | 359 | |||||
| 05/02/2026 | 11:00:00 | 122 | 67 | 10:49:01 | 64 | 10:08:01 | 66 | 52 | 10:11:04 | 36 | 10:53:02 | 45.27 | 0 | 2.3 | 3 | |||||
| 05/02/2026 | 12:00:00 | 122 | 68 | 11:54:01 | 66 | 11:00:01 | 68 | 54 | 11:01:00 | 34 | 11:30:03 | 39.55 | 0 | 3.2 | 348 | |||||
| 05/02/2026 | 13:00:00 | 122 | 70 | 12:59:03 | 67 | 12:04:05 | 70 | 52 | 12:16:02 | 32 | 12:39:02 | 37.44 | 0 | 4.4 | 342 | |||||
| 05/02/2026 | 14:00:00 | 122 | 71 | 13:24:05 | 69 | 13:15:04 | 70 | 48 | 13:18:00 | 31 | 13:00:04 | 44.77 | 0 | 4.2 | 335 | |||||
| 05/02/2026 | 15:00:00 | 122 | 72 | 14:12:02 | 70 | 14:24:05 | 71 | 47 | 14:53:01 | 33 | 14:52:00 | 38.75 | 0 | 3.2 | 340 | |||||
| 05/02/2026 | 16:00:00 | 122 | 72 | 15:44:04 | 68 | 16:00:00 | 68 | 49 | 15:11:04 | 32 | 15:46:02 | 41.32 | 0 | 1.6 | 338 | |||||
| 05/02/2026 | 17:00:00 | 122 | 71 | 16:54:05 | 68 | 16:24:00 | 70 | 45 | 16:24:03 | 32 | 16:45:03 | 36.86 | 0 | 1.2 | 330 | |||||
| 05/02/2026 | 18:00:00 | 122 | 70 | 17:03:05 | 68 | 17:59:05 | 68 | 43 | 17:56:02 | 33 | 17:06:00 | 38.95 | 0 | 1.1 | 322 | |||||
| 05/02/2026 | 19:00:00 | 122 | 68 | 18:00:01 | 61 | 18:56:04 | 62 | 59 | 18:56:00 | 40 | 18:01:05 | 56.24 | 0 | 0.0 | 338 | |||||
| 05/02/2026 | 20:00:00 | 122 | 62 | 19:03:02 | 58 | 19:52:01 | 58 | 73 | 19:50:02 | 54 | 19:16:01 | 68.03 | 0 | 0.0 | 0 | |||||
| 05/02/2026 | 21:00:00 | 122 | 60 | 20:28:01 | 58 | 20:01:04 | 59 | 71 | 20:00:05 | 58 | 20:37:02 | 59.81 | 0 | 0.0 | 0 | |||||
| 05/02/2026 | 22:00:00 | 122 | 59 | 21:08:00 | 57 | 21:50:01 | 57 | 65 | 21:48:01 | 57 | 21:06:05 | 63.5 | 0 | 0.0 | 0 | |||||
| 05/02/2026 | 23:00:00 | 122 | 57 | 22:00:01 | 54 | 22:59:02 | 54 | 76 | 22:44:00 | 64 | 22:00:01 | 75.39 | 0 | 0.0 | 0 | |||||
| 05/03/2026 | 0:00:00 | 123 | 55 | 23:08:02 | 53 | 23:41:01 | 55 | 80 | 23:35:01 | 70 | 23:56:00 | 72.33 | 0 | 0.0 | 0 | |||||
| 05/03/2026 | 1:00:00 | 123 | 55 | 0:00:01 | 52 | 1:00:00 | 52 | 80 | 1:00:00 | 73 | 0:00:01 | 80 | 0 | 0.0 | 0 | |||||
| 05/03/2026 | 2:00:00 | 123 | 53 | 1:08:00 | 51 | 1:42:05 | 51 | 83 | 1:46:00 | 77 | 1:06:04 | 81.6 | 0 | 0.0 | 0 | |||||
| 05/03/2026 | 3:00:00 | 123 | 51 | 2:07:00 | 49 | 2:53:01 | 49 | 89 | 2:59:04 | 81 | 2:16:02 | 88.9 | 0 | 0.0 | 0 | |||||
| 05/03/2026 | 4:00:00 | 123 | 49 | 3:05:00 | 48 | 3:28:03 | 48 | 92 | 3:29:03 | 88 | 3:46:04 | 89.4 | 0 | 0.0 | 0 | |||||
| 05/03/2026 | 5:00:00 | 123 | 49 | 4:26:05 | 48 | 4:15:04 | 48 | 90 | 4:07:02 | 87 | 4:27:04 | 88.6 | 0 | 0.0 | 0 | |||||
| 05/03/2026 | 6:00:00 | 123 | 51 | 5:59:04 | 47 | 5:10:00 | 51 | 92 | 5:15:05 | 87 | 5:59:05 | 87.3 | 0 | 0.0 | 0 | |||||
| 05/03/2026 | 7:00:00 | 123 | 57 | 6:54:00 | 51 | 6:00:01 | 56 | 87 | 6:00:01 | 70 | 6:54:05 | 71.6 | 0 | 0.0 | 0 | |||||
| 05/03/2026 | 8:00:00 | 123 | 59 | 8:00:00 | 56 | 7:06:05 | 59 | 76 | 7:39:03 | 67 | 7:59:04 | 69.5 | 0 | 0.1 | 55 | |||||
| 05/03/2026 | 9:00:00 | 123 | 64 | 9:00:00 | 59 | 8:02:03 | 64 | 72 | 8:18:05 | 49 | 8:56:02 | 53.94 | 0 | 0.0 | 117 | |||||
| 05/03/2026 | 10:00:00 | 123 | 67 | 9:54:03 | 64 | 9:16:01 | 67 | 55 | 9:28:05 | 40 | 9:57:01 | 46.49 | 0 | 0.1 | 75 | |||||
| 05/03/2026 | 11:00:00 | 123 | 70 | 10:51:03 | 66 | 10:29:03 | 68 | 52 | 10:49:05 | 39 | 10:55:00 | 49.16 | 0 | 0.0 | 0 | |||||
| 05/03/2026 | 12:00:00 | 123 | 71 | 11:51:02 | 68 | 11:14:05 | 71 | 52 | 11:01:00 | 37 | 11:23:04 | 39.52 | 0 | 0.1 | 199 | |||||
| 05/03/2026 | 13:00:00 | 123 | 73 | 12:52:02 | 70 | 12:28:00 | 72 | 49 | 12:47:05 | 37 | 12:42:04 | 39.39 | 0 | 0.3 | 301 | |||||
| 05/03/2026 | 14:00:00 | 123 | 73 | 13:25:01 | 71 | 13:30:02 | 72 | 48 | 13:01:05 | 36 | 13:20:05 | 39.22 | 0 | 0.9 | 291 | |||||
| 05/03/2026 | 15:00:00 | 123 | 75 | 14:23:02 | 72 | 14:00:01 | 74 | 48 | 14:02:02 | 35 | 14:43:04 | 38.73 | 0 | 0.6 | 257 | |||||
| 05/03/2026 | 16:00:00 | 123 | 76 | 15:41:01 | 74 | 15:01:00 | 75 | 44 | 15:19:02 | 34 | 15:50:04 | 39.18 | 0 | 0.2 | 240 | |||||
| 05/03/2026 | 17:00:00 | 123 | 77 | 16:23:02 | 74 | 16:57:05 | 75 | 41 | 16:00:01 | 32 | 16:23:01 | 37.33 | 0 | 0.2 | 296 | |||||
| 05/03/2026 | 18:00:00 | 123 | 75 | 17:30:02 | 73 | 17:48:02 | 74 | 46 | 17:53:02 | 34 | 17:05:04 | 44.75 | 0 | 0.0 | 0 | |||||
| 05/03/2026 | 19:00:00 | 123 | 74 | 18:00:01 | 65 | 19:00:00 | 65 | 74 | 19:00:00 | 42 | 18:11:02 | 74.34 | 0 | 0.0 | 0 | |||||
| 05/03/2026 | 20:00:00 | 123 | 65 | 19:00:01 | 61 | 19:59:05 | 61 | 83 | 19:06:00 | 64 | 19:26:02 | 79.87 | 0 | 0.0 | 0 | |||||
| 05/03/2026 | 21:00:00 | 123 | 61 | 20:44:05 | 60 | 21:00:00 | 60 | 83 | 21:00:00 | 75 | 20:11:04 | 83.3 | 0 | 0.0 | 0 | |||||
| 05/03/2026 | 22:00:00 | 123 | 60 | 21:32:00 | 58 | 21:55:03 | 58 | 84 | 21:03:05 | 76 | 21:31:01 | 81.2 | 0 | 0.0 | 0 | |||||
| 05/03/2026 | 23:00:00 | 123 | 58 | 22:00:01 | 57 | 23:00:00 | 57 | 85 | 23:00:00 | 80 | 22:37:02 | 85.1 | 0 | 0.0 | 0 | |||||
| 05/04/2026 | 0:00:00 | 124 | 57 | 23:00:03 | 54 | 0:00:00 | 54 | 92 | 0:00:00 | 85 | 23:00:01 | 91.9 | 0 | 0.0 | 0 | |||||
| 05/04/2026 | 1:00:00 | 124 | 54 | 0:15:00 | 53 | 1:00:00 | 53 | 93 | 0:35:02 | 89 | 0:53:05 | 90 | 0 | 0.0 | 0 | |||||
| 05/04/2026 | 2:00:00 | 124 | 54 | 1:08:04 | 52 | 1:51:00 | 52 | 95 | 1:58:03 | 88 | 1:07:02 | 95.3 | 0 | 0.0 | 0 | |||||
| 05/04/2026 | 3:00:00 | 124 | 52 | 2:18:01 | 52 | 2:44:05 | 52 | 96 | 2:51:01 | 95 | 2:00:01 | 95.6 | 0 | 0.0 | 0 | |||||
| 05/04/2026 | 4:00:00 | 124 | 52 | 3:04:05 | 51 | 3:58:00 | 51 | 96 | 3:04:02 | 94 | 3:55:04 | 94.3 | 0 | 0.0 | 0 | |||||
| 05/04/2026 | 5:00:00 | 124 | 51 | 4:00:01 | 50 | 4:26:05 | 50 | 96 | 4:41:02 | 94 | 4:01:05 | 95.6 | 0 | 0.0 | 0 | |||||
| 05/04/2026 | 6:00:00 | 124 | 56 | 5:59:05 | 50 | 5:15:02 | 56 | 96 | 5:18:01 | 88 | 6:00:00 | 88.2 | 0 | 0.0 | 0 | |||||
| 05/04/2026 | 7:00:00 | 124 | 61 | 6:50:01 | 56 | 6:00:01 | 61 | 88 | 6:00:01 | 76 | 6:51:03 | 78.06 | 0 | 0.0 | 0 | |||||
| 05/04/2026 | 8:00:00 | 124 | 67 | 8:00:00 | 60 | 7:00:05 | 67 | 80 | 7:04:01 | 62 | 7:58:00 | 64.13 | 0 | 0.0 | 235 | |||||
| 05/04/2026 | 9:00:00 | 124 | 72 | 8:59:04 | 67 | 8:01:01 | 72 | 67 | 8:15:04 | 55 | 8:39:04 | 57.42 | 0 | 0.2 | 241 | |||||
| 05/04/2026 | 10:00:00 | 124 | 75 | 9:39:02 | 72 | 9:00:01 | 75 | 61 | 9:00:05 | 46 | 9:46:04 | 49.04 | 0 | 3.9 | 234 | |||||
| 05/04/2026 | 11:00:00 | 124 | 77 | 11:00:00 | 75 | 10:09:00 | 77 | 56 | 10:50:01 | 43 | 10:58:00 | 50.89 | 0 | 3.8 | 244 | |||||
| 05/04/2026 | 12:00:00 | 124 | 79 | 11:48:02 | 77 | 11:06:04 | 78 | 53 | 11:00:04 | 35 | 11:21:04 | 43.74 | 0 | 1.7 | 215 | |||||
| 05/04/2026 | 13:00:00 | 124 | 80 | 12:38:04 | 78 | 12:12:05 | 79 | 50 | 12:34:05 | 38 | 12:21:02 | 41.91 | 0 | 3.3 | 214 | |||||
| 05/04/2026 | 14:00:00 | 124 | 81 | 13:42:04 | 78 | 13:14:00 | 79 | 47 | 13:17:02 | 36 | 13:39:04 | 42.7 | 0 | 3.9 | 189 | |||||
| 05/04/2026 | 15:00:00 | 124 | 81 | 14:55:01 | 79 | 14:17:05 | 80 | 45 | 14:55:03 | 35 | 14:49:01 | 39.33 | 0 | 3.5 | 210 | |||||
| 05/04/2026 | 16:00:00 | 124 | 81 | 15:07:01 | 79 | 15:53:03 | 79 | 45 | 15:46:04 | 36 | 15:05:00 | 40.63 | 0 | 2.5 | 211 | |||||
| 05/04/2026 | 17:00:00 | 124 | 80 | 16:03:05 | 78 | 16:59:00 | 78 | 45 | 16:52:00 | 38 | 16:12:05 | 43.81 | 0 | 2.8 | 200 | |||||
| 05/04/2026 | 18:00:00 | 124 | 78 | 17:08:03 | 76 | 18:00:00 | 76 | 47 | 17:58:00 | 40 | 17:12:01 | 46.62 | 0 | 0.9 | 200 | |||||
| 05/04/2026 | 19:00:00 | 124 | 75 | 18:00:01 | 69 | 18:59:04 | 69 | 60 | 18:59:02 | 46 | 18:04:00 | 60.07 | 0 | 0.0 | 0 | |||||
| 05/04/2026 | 20:00:00 | 124 | 69 | 19:01:03 | 65 | 19:59:03 | 65 | 73 | 19:57:05 | 60 | 19:01:02 | 72.14 | 0 | 0.0 | 0 | |||||
| 05/04/2026 | 21:00:00 | 124 | 65 | 20:25:02 | 63 | 21:00:00 | 63 | 76 | 20:10:04 | 69 | 20:24:04 | 74.98 | 0 | 0.0 | 196 | |||||
| 05/04/2026 | 22:00:00 | 124 | 63 | 21:00:04 | 62 | 21:59:05 | 62 | 79 | 21:59:03 | 75 | 21:01:01 | 78.8 | 0 | 0.0 | 0 | |||||
| 05/04/2026 | 23:00:00 | 124 | 62 | 22:00:01 | 60 | 22:34:01 | 61 | 83 | 22:34:03 | 77 | 22:59:01 | 77.18 | 0 | 0.0 | 0 | |||||
| 05/05/2026 | 0:00:00 | 125 | 61 | 23:06:00 | 60 | 23:58:04 | 60 | 84 | 23:14:03 | 76 | 23:43:05 | 78.86 | 0 | 0.0 | 169 | |||||
| 05/05/2026 | 1:00:00 | 125 | 60 | 0:20:02 | 59 | 0:55:02 | 59 | 84 | 0:58:05 | 77 | 0:19:05 | 83.3 | 0 | 0.0 | 182 | |||||
| 05/05/2026 | 2:00:00 | 125 | 59 | 1:02:04 | 57 | 2:00:00 | 57 | 88 | 2:00:00 | 83 | 1:19:00 | 87.9 | 0 | 0.0 | 197 | |||||
| 05/05/2026 | 3:00:00 | 125 | 58 | 2:15:03 | 56 | 2:59:04 | 56 | 90 | 2:59:05 | 87 | 2:16:02 | 90.1 | 0 | 0.0 | 172 | |||||
| 05/05/2026 | 4:00:00 | 125 | 56 | 3:15:04 | 56 | 4:00:00 | 56 | 93 | 4:00:00 | 90 | 3:00:02 | 93.3 | 0 | 0.0 | 0 | |||||
| 05/05/2026 | 5:00:00 | 125 | 56 | 4:12:01 | 55 | 4:08:01 | 56 | 94 | 4:46:04 | 93 | 4:00:01 | 94 | 0 | 0.0 | 0 | |||||
| 05/05/2026 | 6:00:00 | 125 | 59 | 5:59:05 | 55 | 5:03:02 | 59 | 94 | 5:06:02 | 87 | 5:58:03 | 87.6 | 0 | 0.0 | 145 | |||||
| 05/05/2026 | 7:00:00 | 125 | 64 | 6:59:05 | 59 | 6:00:03 | 64 | 88 | 6:00:01 | 77 | 6:49:05 | 78.18 | 0 | 0.1 | 166 | |||||
| 05/05/2026 | 8:00:00 | 125 | 68 | 7:51:02 | 64 | 7:05:03 | 67 | 78 | 7:00:01 | 72 | 7:56:01 | 73.57 | 0 | 0.4 | 186 | |||||
| 05/05/2026 | 9:00:00 | 125 | 72 | 8:59:00 | 67 | 8:02:02 | 71 | 75 | 8:05:02 | 67 | 8:28:01 | 67.85 | 0 | 1.0 | 195 | |||||
| 05/05/2026 | 10:00:00 | 125 | 75 | 9:49:05 | 71 | 9:02:00 | 73 | 70 | 9:03:03 | 61 | 9:30:05 | 65.01 | 0 | 2.0 | 182 | |||||
| 05/05/2026 | 11:00:00 | 125 | 76 | 10:51:04 | 71 | 10:07:02 | 74 | 69 | 10:10:00 | 59 | 10:56:00 | 63.29 | 0 | 3.9 | 210 | |||||
| 05/05/2026 | 12:00:00 | 125 | 78 | 11:46:05 | 74 | 11:01:05 | 77 | 67 | 11:03:01 | 55 | 11:48:02 | 60.44 | 0 | 3.6 | 190 | |||||
| 05/05/2026 | 13:00:00 | 125 | 77 | 12:15:00 | 76 | 12:54:05 | 76 | 63 | 12:13:02 | 57 | 12:17:04 | 60.42 | 0 | 3.9 | 164 | |||||
| 05/05/2026 | 14:00:00 | 125 | 76 | 13:59:04 | 75 | 13:16:04 | 76 | 64 | 13:24:00 | 60 | 13:07:05 | 61.63 | 0 | 2.3 | 166 | |||||
| 05/05/2026 | 15:00:00 | 125 | 79 | 14:42:04 | 76 | 14:59:05 | 76 | 64 | 14:01:05 | 59 | 14:45:02 | 62.18 | 0 | 2.5 | 167 | |||||
| 05/05/2026 | 16:00:00 | 125 | 78 | 15:34:02 | 76 | 15:02:04 | 76 | 66 | 15:59:03 | 61 | 15:15:00 | 64.27 | 0 | 2.4 | 159 | |||||
| 05/05/2026 | 17:00:00 | 125 | 77 | 16:23:00 | 75 | 16:58:04 | 75 | 69 | 16:54:00 | 64 | 16:00:03 | 68.88 | 0 | 1.2 | 154 | |||||
| 05/05/2026 | 18:00:00 | 125 | 75 | 17:00:01 | 74 | 17:59:05 | 74 | 73 | 18:00:00 | 68 | 17:00:03 | 73.14 | 0 | 1.4 | 152 | |||||
| 05/05/2026 | 19:00:00 | 125 | 74 | 18:00:04 | 73 | 18:58:03 | 73 | 76 | 18:57:04 | 73 | 18:00:01 | 75.18 | 0 | 0.0 | 153 | |||||
| 05/05/2026 | 20:00:00 | 125 | 73 | 19:44:00 | 73 | 19:27:03 | 73 | 76 | 19:35:00 | 75 | 19:01:00 | 75.93 | 0 | 0.4 | 161 | |||||
| 05/05/2026 | 21:00:00 | 125 | 73 | 20:00:02 | 72 | 20:25:04 | 73 | 79 | 20:41:01 | 76 | 20:00:01 | 76.92 | 0 | 0.2 | 178 | |||||
| 05/05/2026 | 22:00:00 | 125 | 73 | 21:09:02 | 71 | 21:59:05 | 71 | 80 | 22:00:00 | 76 | 21:15:03 | 79.55 | 0 | 2.9 | 167 | |||||
| 05/05/2026 | 23:00:00 | 125 | 71 | 22:00:01 | 69 | 22:59:05 | 69 | 85 | 23:00:00 | 79 | 22:05:04 | 84.7 | 0 | 1.3 | 171 | |||||
| 05/06/2026 | 0:00:00 | 126 | 69 | 23:51:04 | 68 | 23:29:04 | 69 | 86 | 23:30:04 | 85 | 23:00:01 | 85.4 | 0 | 0.5 | 164 | |||||
| 05/06/2026 | 1:00:00 | 126 | 69 | 0:10:00 | 69 | 0:59:01 | 69 | 88 | 1:00:00 | 85 | 0:04:00 | 88 | 0 | 1.5 | 165 | |||||
| 05/06/2026 | 2:00:00 | 126 | 69 | 1:00:01 | 68 | 1:59:05 | 68 | 91 | 1:58:05 | 88 | 1:00:02 | 90.7 | 0 | 0.3 | 155 | |||||
| 05/06/2026 | 3:00:00 | 126 | 68 | 2:38:01 | 68 | 2:15:00 | 68 | 92 | 2:58:04 | 91 | 2:00:01 | 92 | 0 | 0.4 | 151 | |||||
| 05/06/2026 | 4:00:00 | 126 | 68 | 3:07:02 | 68 | 3:17:05 | 68 | 93 | 3:46:04 | 92 | 3:00:01 | 93.2 | 0 | 0.0 | 0 | |||||
| 05/06/2026 | 5:00:00 | 126 | 69 | 4:59:05 | 68 | 4:01:00 | 69 | 94 | 4:26:03 | 92 | 4:59:04 | 91.8 | 0 | 0.1 | 157 | |||||
| 05/06/2026 | 6:00:00 | 126 | 70 | 5:43:05 | 69 | 5:13:02 | 69 | 92 | 5:20:04 | 92 | 5:42:03 | 91.8 | 0 | 1.3 | 180 | |||||
| 05/06/2026 | 7:00:00 | 126 | 72 | 6:56:03 | 69 | 6:02:01 | 72 | 92 | 6:10:04 | 87 | 6:58:01 | 87.5 | 0 | 0.9 | 171 | |||||
| 05/06/2026 | 8:00:00 | 126 | 75 | 7:53:00 | 71 | 7:09:02 | 74 | 88 | 7:17:01 | 82 | 7:58:01 | 83.9 | 0 | 4.2 | 189 | |||||
| 05/06/2026 | 9:00:00 | 126 | 76 | 8:55:02 | 74 | 8:00:01 | 76 | 84 | 8:20:00 | 82 | 8:57:00 | 81.6 | 0 | 3.8 | 205 | |||||
| 05/06/2026 | 10:00:00 | 126 | 76 | 9:25:04 | 75 | 9:00:02 | 76 | 84 | 9:55:02 | 81 | 9:12:01 | 83.5 | 0 | 2.6 | 212 | |||||
| Average | 66.2 | 64.16 | 65.13 | 78.84 | 70.84 | 74.93 | 0.01 | 0.59 | 0 | 0 | 0 | 0 | 0 | |||||||
| Total | 2.57 |